Time;durP1;ratioP1;P1;durP2;ratioP2;P2;SDS_P1;SDS_P2;PMS_P1;PMS_P2;Temp;Humidity;BMP_temperature;BMP_pressure;BME280_temperature;BME280_humidity;BME280_pressure;Samples;Min_cycle;Max_cycle;Signal;HPM_P1;HPM_P2
2023/05/15 00:02:19;;;;;;;;;;;;;;;;;;;;;
2023/05/15 00:08:44;;;;;;;54.85;13.55;;;16.50;99.90;;;;;;6077299;23;20038;-94
2023/05/15 00:11:38;;;;;;;58.67;12.88;;;16.50;99.90;;;;;;5965649;24;20013;-93
2023/05/15 00:19:11;;;;;;;;;;;;;;;;;;;;;
2023/05/15 00:30:20;;;;;;;51.85;13.52;;;16.50;99.90;;;;;;6293897;22;20075;-93
2023/05/15 00:32:47;;;;;;;54.72;12.75;;;16.50;99.90;;;;;;6259354;22;20022;-93
2023/05/15 00:35:13;;;;;;;67.03;14.65;;;16.50;99.90;;;;;;6231396;23;20020;-92
2023/05/15 00:37:45;;;;;;;50.42;13.70;;;16.50;99.90;;;;;;6215103;23;20010;-94
2023/05/15 00:40:28;;;;;;;61.22;14.05;;;16.50;99.90;;;;;;6206835;23;20008;-94
2023/05/15 00:43:27;;;;;;;57.65;13.55;;;16.50;99.90;;;;;;6210146;23;20007;-93
2023/05/15 00:45:56;;;;;;;58.58;13.80;;;16.50;99.90;;;;;;6252118;23;20004;-93
2023/05/15 00:48:24;;;;;;;51.55;13.70;;;16.50;99.90;;;;;;6197358;23;20441;-93
2023/05/15 00:50:51;;;;;;;62.95;14.52;;;16.50;99.90;;;;;;6196951;23;20018;-93
2023/05/15 00:53:18;;;;;;;64.60;13.60;;;16.50;99.90;;;;;;6197562;23;20004;-93
2023/05/15 00:55:46;;;;;;;50.47;15.00;;;16.50;99.90;;;;;;6196801;23;20074;-93
2023/05/15 00:58:14;;;;;;;65.47;14.27;;;16.50;99.90;;;;;;6222949;23;20485;-93
2023/05/15 01:00:44;;;;;;;58.75;13.98;;;16.50;99.90;;;;;;6197443;23;20016;-94
2023/05/15 01:03:11;;;;;;;50.35;13.77;;;16.40;99.90;;;;;;6197149;23;20035;-93
2023/05/15 01:05:37;;;;;;;67.28;14.05;;;16.50;99.90;;;;;;6197015;23;20004;-93
2023/05/15 01:08:45;;;;;;;61.33;13.70;;;16.40;99.90;;;;;;6197412;23;20005;-92
2023/05/15 01:11:13;;;;;;;45.88;13.70;;;16.50;99.90;;;;;;6196761;23;20016;-92
2023/05/15 01:13:43;;;;;;;45.17;13.27;;;16.50;99.90;;;;;;6196571;23;20006;-92
2023/05/15 01:16:12;;;;;;;69.63;15.23;;;16.50;99.90;;;;;;6197563;23;20078;-94
2023/05/15 01:18:39;;;;;;;58.17;12.88;;;16.50;99.90;;;;;;6197144;23;20426;-93
2023/05/15 01:21:06;;;;;;;60.97;14.40;;;16.60;99.90;;;;;;6196902;23;20095;-93
2023/05/15 01:23:45;;;;;;;54.85;14.25;;;16.60;99.90;;;;;;6196788;23;20005;-93
2023/05/15 01:26:24;;;;;;;58.42;13.65;;;16.60;99.90;;;;;;6196464;23;20008;-94
2023/05/15 01:29:08;;;;;;;58.05;13.20;;;16.60;99.90;;;;;;6246761;23;20345;-93
2023/05/15 01:31:41;;;;;;;57.67;13.73;;;16.60;99.90;;;;;;6192032;23;20090;-93
2023/05/15 01:34:11;;;;;;;61.10;14.23;;;16.60;99.90;;;;;;6166762;23;20019;-93
2023/05/15 01:36:47;;;;;;;58.88;14.20;;;16.60;99.90;;;;;;6167140;23;20009;-92
2023/05/15 01:39:30;;;;;;;68.22;14.18;;;16.70;99.90;;;;;;6166670;23;20445;-93
2023/05/15 01:42:02;;;;;;;59.25;13.13;;;16.60;99.90;;;;;;6191501;23;20013;-93
2023/05/15 01:44:37;;;;;;;47.08;13.55;;;16.70;99.90;;;;;;6191414;23;20008;-93
2023/05/15 01:47:12;;;;;;;48.08;12.82;;;16.70;99.90;;;;;;6191335;23;20004;-93
2023/05/15 01:49:45;;;;;;;40.65;13.55;;;16.70;99.90;;;;;;6192618;23;20012;-93
2023/05/15 01:52:31;;;;;;;48.95;12.60;;;16.70;99.90;;;;;;6192540;23;20005;-91
2023/05/15 01:55:03;;;;;;;53.75;12.68;;;16.70;99.90;;;;;;6191704;23;20027;-92
2023/05/15 01:57:30;;;;;;;54.65;12.82;;;16.70;99.90;;;;;;6191572;23;20028;-93
2023/05/15 01:59:58;;;;;;;57.03;13.00;;;16.70;99.90;;;;;;6191081;23;20437;-93
2023/05/15 02:02:26;;;;;;;57.03;13.45;;;16.80;99.90;;;;;;6197076;23;20008;-92
2023/05/15 02:04:57;;;;;;;52.35;11.82;;;16.80;99.90;;;;;;6197155;23;20000;-93
2023/05/15 02:07:27;;;;;;;52.80;12.45;;;16.80;99.90;;;;;;6191648;23;20005;-93
2023/05/15 02:10:02;;;;;;;51.30;12.23;;;16.80;99.90;;;;;;6192941;23;20009;-92
2023/05/15 02:12:30;;;;;;;41.42;11.30;;;16.90;99.90;;;;;;6191424;23;20008;-93
2023/05/15 02:14:58;;;;;;;56.88;11.40;;;16.90;99.90;;;;;;6192333;23;20008;-93
2023/05/15 02:17:28;;;;;;;48.72;12.02;;;16.90;99.90;;;;;;6191763;23;20005;-93
2023/05/15 02:19:56;;;;;;;49.97;11.80;;;16.90;99.90;;;;;;6191733;23;20087;-94
2023/05/15 02:22:23;;;;;;;52.38;12.80;;;17.00;99.90;;;;;;6166654;23;20012;-92
2023/05/15 02:24:49;;;;;;;53.08;12.98;;;17.00;99.90;;;;;;6159995;23;20036;-93
2023/05/15 02:27:32;;;;;;;49.90;12.30;;;17.00;99.90;;;;;;6191233;23;20005;-93
2023/05/15 02:30:28;;;;;;;50.83;12.13;;;17.00;99.90;;;;;;6196553;23;20016;-93
2023/05/15 02:33:22;;;;;;;46.42;12.63;;;17.00;99.90;;;;;;6241690;23;20005;-92
2023/05/15 02:36:14;;;;;;;52.15;12.25;;;17.00;99.90;;;;;;6193082;23;20016;-94
2023/05/15 02:38:51;;;;;;;48.88;12.45;;;17.00;99.90;;;;;;6216564;23;20016;-93
2023/05/15 02:41:39;;;;;;;56.65;12.88;;;17.00;99.90;;;;;;6192842;23;20426;-92
2023/05/15 02:44:07;;;;;;;46.03;11.55;;;17.00;99.90;;;;;;6170578;23;20430;-92
2023/05/15 02:46:35;;;;;;;51.38;12.40;;;17.00;99.90;;;;;;6191602;23;20028;-93
2023/05/15 02:49:05;;;;;;;47.10;11.50;;;17.00;99.90;;;;;;6191331;23;20008;-93
2023/05/15 02:51:36;;;;;;;44.97;11.82;;;16.90;99.90;;;;;;6192580;23;20496;-93
2023/05/15 02:54:07;;;;;;;47.00;11.80;;;17.00;99.90;;;;;;6192735;23;20442;-93
2023/05/15 02:56:39;;;;;;;45.22;10.95;;;17.00;99.90;;;;;;6192717;23;20008;-92
2023/05/15 02:59:06;;;;;;;49.67;12.80;;;16.90;99.90;;;;;;6192688;23;20008;-94
2023/05/15 03:01:35;;;;;;;45.33;12.45;;;17.00;99.90;;;;;;6192151;23;20004;-92
2023/05/15 03:04:05;;;;;;;50.97;12.77;;;17.00;99.90;;;;;;6192946;23;20370;-93
2023/05/15 03:06:42;;;;;;;38.67;10.80;;;17.00;99.90;;;;;;6217010;23;20000;-93
2023/05/15 03:09:08;;;;;;;63.75;12.20;;;17.00;99.90;;;;;;6191197;23;20014;-93
2023/05/15 03:11:35;;;;;;;58.35;12.07;;;17.00;99.90;;;;;;6191390;23;20008;-92
2023/05/15 03:14:02;;;;;;;47.45;12.65;;;17.00;99.90;;;;;;6190972;23;20431;-93
2023/05/15 03:16:29;;;;;;;51.05;10.98;;;17.00;99.90;;;;;;6190974;23;20009;-93
2023/05/15 03:18:55;;;;;;;43.25;11.70;;;17.00;99.90;;;;;;6191536;23;20031;-93
2023/05/15 03:21:25;;;;;;;46.70;11.48;;;17.00;99.90;;;;;;6192377;23;20379;-93
2023/05/15 03:24:12;;;;;;;42.85;12.23;;;17.00;99.90;;;;;;6238860;23;20012;-93
2023/05/15 03:26:41;;;;;;;39.92;11.48;;;17.00;99.90;;;;;;6192395;23;20019;-93
2023/05/15 03:29:08;;;;;;;51.30;12.40;;;17.00;99.90;;;;;;6191941;23;20007;-93
2023/05/15 03:31:35;;;;;;;43.97;11.50;;;17.00;99.90;;;;;;6191057;23;20020;-92
2023/05/15 03:34:04;;;;;;;39.63;11.57;;;17.10;99.90;;;;;;6194301;23;20015;-93
2023/05/15 03:36:55;;;;;;;33.33;10.80;;;17.10;99.90;;;;;;6218060;23;20012;-93
2023/05/15 03:42:24;;;;;;;39.92;13.00;;;17.10;99.90;;;;;;6230427;22;20038;-92
2023/05/15 03:45:12;;;;;;;40.38;12.05;;;17.10;99.90;;;;;;6198792;23;20311;-92
2023/05/15 03:48:35;;;;;;;34.40;12.70;;;17.10;99.90;;;;;;6202011;23;20015;-92
2023/05/15 03:51:25;;;;;;;;;;;;;;;;;;;;;
2023/05/15 03:54:08;;;;;;;56.78;12.65;;;17.10;99.90;;;;;;6193774;23;20081;-93
2023/05/15 03:56:40;;;;;;;48.20;13.88;;;17.10;99.90;;;;;;6167357;23;20068;-93
2023/05/15 03:59:24;;;;;;;36.13;12.20;;;17.10;99.90;;;;;;6195651;23;20093;-92
2023/05/15 04:01:54;;;;;;;29.60;11.50;;;17.20;99.90;;;;;;6167215;23;20009;-92
2023/05/15 04:04:36;;;;;;;49.72;12.40;;;17.20;99.90;;;;;;6206214;22;20054;-92
2023/05/15 04:07:09;;;;;;;30.08;12.02;;;17.20;99.90;;;;;;6227374;22;20012;-92
2023/05/15 04:09:36;;;;;;;44.38;13.05;;;17.20;99.90;;;;;;6225986;22;20338;-92
2023/05/15 04:12:05;;;;;;;39.72;12.60;;;17.30;99.90;;;;;;6228042;22;20050;-92
2023/05/15 04:14:43;;;;;;;33.58;12.55;;;17.30;99.90;;;;;;6216694;22;20019;-93
2023/05/15 04:17:20;;;;;;;41.08;12.80;;;17.30;99.90;;;;;;6224970;23;20129;-92
2023/05/15 04:19:47;;;;;;;38.00;12.75;;;17.30;99.90;;;;;;6196755;23;20084;-92
2023/05/15 04:24:55;;;;;;;36.40;12.73;;;17.30;99.90;;;;;;6205170;22;20031;-93
2023/05/15 04:30:11;;;;;;;33.10;12.60;;;17.30;99.90;;;;;;6222156;22;20379;-92
2023/05/15 04:32:53;;;;;;;34.08;11.90;;;17.30;99.90;;;;;;6253459;22;20422;-92
2023/05/15 04:35:25;;;;;;;33.95;12.40;;;17.40;99.90;;;;;;6253060;22;20023;-93
2023/05/15 04:37:55;;;;;;;39.05;12.88;;;17.30;99.90;;;;;;6253158;22;20084;-93
2023/05/15 04:40:33;;;;;;;44.53;14.45;;;17.40;99.90;;;;;;6246874;23;20012;-92
2023/05/15 04:45:59;;;;;;;38.00;13.02;;;17.40;99.90;;;;;;6250727;22;20024;-93
2023/05/15 04:52:26;;;;;;;35.75;13.13;;;17.50;99.90;;;;;;6219917;23;20087;-93
2023/05/15 05:09:33;;;;;;;39.53;13.30;;;17.50;99.90;;;;;;6283043;22;20030;-93
2023/05/15 05:12:01;;;;;;;45.42;14.57;;;17.60;99.90;;;;;;6127792;23;20126;-93
2023/05/15 05:14:30;;;;;;;31.35;11.63;;;17.50;99.90;;;;;;6078871;23;20009;-92
2023/05/15 05:16:56;;;;;;;37.72;12.75;;;17.50;99.90;;;;;;6102257;23;20021;-92
2023/05/15 05:19:23;;;;;;;38.55;13.02;;;17.50;99.90;;;;;;6092905;23;20025;-92
2023/05/15 05:21:49;;;;;;;34.40;13.52;;;17.50;99.90;;;;;;6102788;23;20093;-92
2023/05/15 05:24:18;;;;;;;34.17;13.95;;;17.50;99.90;;;;;;6079867;23;20002;-94
2023/05/15 05:26:48;;;;;;;29.38;12.32;;;17.50;99.90;;;;;;6105446;23;20013;-94
2023/05/15 05:29:14;;;;;;;39.42;13.55;;;17.50;99.90;;;;;;6087751;23;20070;-93
2023/05/15 05:32:01;;;;;;;34.25;12.38;;;17.50;99.90;;;;;;6092815;23;20105;-94
2023/05/15 05:34:28;;;;;;;42.47;12.93;;;17.60;99.90;;;;;;6078278;23;20045;-94
2023/05/15 05:36:54;;;;;;;32.40;12.93;;;17.60;99.90;;;;;;6077833;23;20026;-93
2023/05/15 05:39:20;;;;;;;32.13;13.07;;;17.70;99.90;;;;;;6078107;23;20010;-94
2023/05/15 05:41:47;;;;;;;27.23;13.95;;;17.70;99.90;;;;;;6102483;23;20016;-93
2023/05/15 05:44:13;;;;;;;37.40;14.10;;;17.70;99.90;;;;;;6078299;23;20021;-94
2023/05/15 05:46:40;;;;;;;36.65;13.93;;;17.80;99.90;;;;;;6231359;22;20425;-94
2023/05/15 05:49:06;;;;;;;30.42;13.65;;;17.80;99.90;;;;;;6161128;23;20009;-93
2023/05/15 05:51:38;;;;;;;34.70;14.07;;;17.90;99.90;;;;;;6136321;23;20013;-94
2023/05/15 05:54:04;;;;;;;35.47;14.93;;;18.00;99.90;;;;;;6136677;23;20009;-94
2023/05/15 05:56:31;;;;;;;35.58;14.95;;;18.10;99.90;;;;;;6136983;23;20013;-93
2023/05/15 05:58:58;;;;;;;30.45;14.52;;;18.20;99.90;;;;;;6137462;23;20005;-94
2023/05/15 06:01:25;;;;;;;33.30;14.48;;;18.40;99.90;;;;;;6137210;23;20001;-92
2023/05/15 06:03:52;;;;;;;33.88;14.55;;;18.50;99.90;;;;;;6136314;23;20009;-94
2023/05/15 06:06:18;;;;;;;32.97;15.27;;;18.60;99.90;;;;;;6136042;23;20020;-94
2023/05/15 06:08:45;;;;;;;36.83;15.32;;;18.60;99.90;;;;;;6137138;23;20013;-94
2023/05/15 06:11:11;;;;;;;32.45;16.17;;;18.60;99.90;;;;;;6135906;23;20063;-94
2023/05/15 06:13:38;;;;;;;25.30;15.82;;;18.60;99.90;;;;;;6136187;23;20013;-94
2023/05/15 06:16:05;;;;;;;38.17;16.52;;;18.70;99.90;;;;;;6135999;23;20041;-93
2023/05/15 06:18:31;;;;;;;31.60;15.73;;;18.70;99.90;;;;;;6135983;23;20009;-93
2023/05/15 06:20:59;;;;;;;35.83;16.17;;;18.80;99.90;;;;;;6209626;23;20008;-94
2023/05/15 06:23:28;;;;;;;41.30;17.17;;;18.90;99.90;;;;;;6246522;23;20431;-94
2023/05/15 06:25:54;;;;;;;28.35;16.00;;;19.00;99.90;;;;;;6221322;23;20418;-94
2023/05/15 06:28:21;;;;;;;26.70;16.35;;;19.10;99.90;;;;;;6222539;23;20091;-94
2023/05/15 06:31:00;;;;;;;32.83;16.58;;;19.30;99.90;;;;;;6246725;23;20102;-92
2023/05/15 06:33:27;;;;;;;38.40;17.70;;;19.40;99.90;;;;;;6246339;23;20008;-94
2023/05/15 06:35:53;;;;;;;33.67;17.25;;;19.40;99.90;;;;;;6221855;23;20020;-94
2023/05/15 06:38:19;;;;;;;29.17;17.45;;;19.50;99.90;;;;;;6246238;23;20016;-94
2023/05/15 06:40:46;;;;;;;36.60;17.85;;;19.50;99.90;;;;;;6221147;23;20008;-94
2023/05/15 06:43:12;;;;;;;28.90;17.15;;;19.50;99.90;;;;;;6246244;23;20062;-94
2023/05/15 06:45:38;;;;;;;34.95;18.67;;;19.60;99.90;;;;;;6220811;23;20011;-93
2023/05/15 06:48:08;;;;;;;39.67;17.92;;;19.80;99.90;;;;;;6252703;23;20004;-93
2023/05/15 07:10:15;;;;;;;40.10;22.25;;;21.20;99.90;;;;;;6254925;22;20035;-93
2023/05/15 08:32:44;;;;;;;28.38;22.25;;;21.80;99.90;;;;;;6274625;22;20030;-95
2023/05/15 08:35:44;;;;;;;38.63;23.25;;;22.10;99.90;;;;;;6169832;23;20406;-92
2023/05/15 08:39:08;;;;;;;36.65;23.30;;;21.80;99.90;;;;;;6176485;23;20023;-95
2023/05/15 08:42:10;;;;;;;35.85;23.80;;;21.70;99.90;;;;;;6166791;23;20448;-92
2023/05/15 08:45:00;;;;;;;;;;;;;;;;;;;;;
2023/05/15 08:48:24;;;;;;;33.10;22.15;;;21.50;99.90;;;;;;6170905;23;20009;-94
2023/05/15 08:51:03;;;;;;;45.35;22.85;;;21.50;99.90;;;;;;6088653;23;20452;-94
2023/05/15 08:53:42;;;;;;;37.42;22.40;;;21.60;99.90;;;;;;6090309;23;20010;-94
2023/05/15 08:59:27;;;;;;;41.85;23.08;;;21.60;99.90;;;;;;6026256;23;20036;-93
2023/05/15 09:02:19;;;;;;;38.30;22.90;;;21.30;99.90;;;;;;6001340;23;20035;-95
2023/05/15 09:05:45;;;;;;;;;;;;;;;;;;;;;
2023/05/15 09:08:22;;;;;;;34.27;23.10;;;20.70;99.90;;;;;;5859857;24;20457;-94
2023/05/15 09:10:51;;;;;;;32.67;22.65;;;20.80;99.90;;;;;;5887639;24;20013;-94
2023/05/15 09:13:18;;;;;;;36.63;23.52;;;20.70;99.90;;;;;;5937152;24;20012;-93
2023/05/15 09:16:07;;;;;;;34.83;23.33;;;20.80;99.90;;;;;;5940806;24;20017;-94
2023/05/15 09:18:37;;;;;;;33.65;21.42;;;20.60;99.90;;;;;;5919642;24;20021;-94
2023/05/15 09:22:01;;;;;;;;;;;;;;;;;;;;;
2023/05/15 09:25:10;;;;;;;46.73;23.70;;;20.80;99.90;;;;;;6295924;22;20353;-95
2023/05/15 09:27:52;;;;;;;31.70;21.98;;;20.80;99.90;;;;;;6266820;22;20000;-94
2023/05/15 09:30:31;;;;;;;38.70;22.92;;;21.10;99.90;;;;;;6244168;22;20303;-94
2023/05/15 09:33:03;;;;;;;44.78;22.35;;;21.50;99.90;;;;;;6269475;22;20004;-94
2023/05/15 09:35:39;;;;;;;37.17;22.35;;;21.50;99.90;;;;;;6261763;22;20019;-86
2023/05/15 14:03:22;;;;;;;34.50;18.83;;;21.50;99.90;;;;;;6236459;22;20617;31
2023/05/15 14:05:50;;;;;;;32.67;18.83;;;21.60;99.90;;;;;;6196484;23;20012;-92
2023/05/15 14:08:16;;;;;;;39.63;18.40;;;21.70;99.90;;;;;;6223839;23;20051;-92
2023/05/15 14:10:43;;;;;;;34.05;18.88;;;21.90;99.90;;;;;;6248340;23;20008;-92
2023/05/15 14:13:10;;;;;;;29.92;19.50;;;21.90;99.90;;;;;;6221486;23;20477;-91
2023/05/15 14:15:36;;;;;;;31.42;18.67;;;21.80;99.90;;;;;;6272986;22;20016;-91
2023/05/15 14:18:03;;;;;;;25.67;18.42;;;21.80;99.90;;;;;;6251798;22;19999;-91
2023/05/15 14:20:29;;;;;;;33.75;18.83;;;21.70;99.90;;;;;;6226141;22;20016;-92
2023/05/15 14:22:56;;;;;;;26.98;18.40;;;21.70;99.90;;;;;;6226323;22;20083;-91
2023/05/15 14:25:23;;;;;;;27.60;19.13;;;21.90;99.90;;;;;;6226143;22;20086;-90
2023/05/15 14:27:49;;;;;;;29.20;19.13;;;21.50;99.90;;;;;;6251446;22;20008;-91
2023/05/15 14:30:17;;;;;;;30.70;18.60;;;21.60;99.90;;;;;;6225984;22;20017;-92
2023/05/15 14:32:43;;;;;;;33.38;19.35;;;21.50;99.90;;;;;;6251429;22;20057;-91
2023/05/15 14:35:10;;;;;;;35.65;19.30;;;21.50;99.90;;;;;;6225936;22;20036;-91
2023/05/15 14:37:36;;;;;;;20.85;18.55;;;21.60;99.90;;;;;;6226160;22;20014;-91
2023/05/15 14:40:03;;;;;;;27.30;18.05;;;21.60;99.90;;;;;;6225904;22;20014;-92
2023/05/15 14:42:30;;;;;;;32.53;18.63;;;21.80;99.90;;;;;;6251298;22;20094;-91
2023/05/15 14:44:56;;;;;;;28.75;19.75;;;21.80;99.90;;;;;;6226633;22;20087;-91
2023/05/15 14:47:26;;;;;;;31.10;19.90;;;21.50;99.90;;;;;;6226201;22;20007;-94
2023/05/15 14:49:53;;;;;;;32.72;18.95;;;21.60;99.90;;;;;;6253132;22;20007;-93
2023/05/15 14:52:19;;;;;;;30.05;19.02;;;21.80;99.90;;;;;;6226245;22;20007;-92
2023/05/15 14:54:45;;;;;;;30.42;18.48;;;21.80;99.90;;;;;;6250753;22;20019;-92
2023/05/15 14:57:12;;;;;;;21.23;18.30;;;21.60;99.90;;;;;;6234087;22;20064;-92
2023/05/15 14:59:39;;;;;;;28.23;18.77;;;21.50;99.90;;;;;;6232067;22;20014;-93
2023/05/15 15:02:06;;;;;;;24.90;18.27;;;21.50;99.90;;;;;;6251874;22;20007;-90
2023/05/15 15:04:33;;;;;;;30.95;19.45;;;21.50;99.90;;;;;;6220089;23;20062;-91
2023/05/15 15:07:03;;;;;;;28.67;18.65;;;21.30;99.90;;;;;;6220759;23;20050;-93
2023/05/15 15:09:29;;;;;;;30.40;18.48;;;21.20;99.90;;;;;;6245975;22;20008;-91
2023/05/15 15:11:59;;;;;;;31.17;19.10;;;21.20;99.90;;;;;;6246114;23;20054;-92
2023/05/15 15:14:46;;;;;;;26.33;18.15;;;21.10;99.90;;;;;;6246795;22;20008;-93
2023/05/15 15:17:13;;;;;;;27.67;19.58;;;21.10;99.90;;;;;;6246834;23;20048;-93
2023/05/15 15:19:40;;;;;;;33.97;19.63;;;20.90;99.90;;;;;;6245641;23;20062;-90
2023/05/15 15:22:06;;;;;;;31.85;20.38;;;20.80;99.90;;;;;;6220633;23;20020;-92
2023/05/15 15:24:32;;;;;;;34.78;19.80;;;20.80;99.90;;;;;;6245936;22;20084;-92
2023/05/15 15:26:59;;;;;;;39.38;20.08;;;20.70;99.90;;;;;;6245452;22;20464;-93
2023/05/15 15:29:25;;;;;;;30.80;19.48;;;20.60;99.90;;;;;;6245631;23;20008;-92
2023/05/15 15:31:52;;;;;;;35.55;19.70;;;20.70;99.90;;;;;;6245450;23;20091;-92
2023/05/15 15:34:18;;;;;;;30.65;19.80;;;20.60;99.90;;;;;;6246141;22;20024;-90
2023/05/15 15:36:45;;;;;;;31.23;19.75;;;20.60;99.90;;;;;;6246129;23;20040;-92
2023/05/15 15:39:12;;;;;;;29.63;20.02;;;20.70;99.90;;;;;;6221226;23;20088;-92
2023/05/15 15:41:41;;;;;;;31.83;19.65;;;20.60;99.90;;;;;;6220855;23;20020;-93
2023/05/15 15:44:08;;;;;;;37.65;19.95;;;20.40;99.90;;;;;;6246781;23;20429;-92
2023/05/15 15:46:35;;;;;;;30.23;19.58;;;20.50;99.90;;;;;;6245044;23;20004;-93
2023/05/15 15:49:02;;;;;;;27.55;19.98;;;20.40;99.90;;;;;;6219768;23;20015;-92
2023/05/15 15:51:31;;;;;;;45.05;21.33;;;20.30;99.90;;;;;;6220641;23;20407;-91
2023/05/15 15:53:58;;;;;;;36.08;19.30;;;20.20;99.90;;;;;;6221046;23;20015;-93
2023/05/15 15:56:24;;;;;;;46.70;20.70;;;20.20;99.90;;;;;;6219702;23;20099;-93
2023/05/15 15:58:51;;;;;;;35.17;19.67;;;20.10;99.90;;;;;;6219832;23;20337;-93
2023/05/15 16:01:18;;;;;;;35.38;19.85;;;20.10;99.90;;;;;;6221813;23;20051;-92
2023/05/15 16:03:44;;;;;;;38.20;20.83;;;20.00;99.90;;;;;;6194167;23;20011;-92
2023/05/15 16:06:13;;;;;;;34.83;20.45;;;20.10;99.90;;;;;;6219845;23;20012;-92
2023/05/15 16:08:40;;;;;;;50.30;20.80;;;20.00;99.90;;;;;;6219419;23;20015;-93
2023/05/15 16:11:07;;;;;;;33.60;19.63;;;19.90;99.90;;;;;;6219541;23;20390;-92
2023/05/15 16:13:34;;;;;;;38.67;19.50;;;19.80;99.90;;;;;;6219790;23;20015;-92
2023/05/15 16:16:00;;;;;;;28.00;18.77;;;19.80;99.90;;;;;;6194845;23;20027;-93
2023/05/15 16:18:27;;;;;;;46.10;20.33;;;19.70;99.90;;;;;;6196123;23;20073;-92
2023/05/15 16:21:18;;;;;;;34.00;19.35;;;19.60;99.90;;;;;;6222667;23;20018;-92
2023/05/15 16:24:13;;;;;;;35.53;18.92;;;19.60;99.90;;;;;;6228123;22;20010;-92
2023/05/15 16:37:14;;;;;;;39.15;20.70;;;19.70;99.90;;;;;;6268464;22;20031;-94
2023/05/15 16:40:26;;;;;;;33.35;19.88;;;19.80;99.90;;;;;;6246927;22;20446;-93
2023/05/15 16:42:56;;;;;;;30.13;19.48;;;19.70;99.90;;;;;;6204083;23;20008;-93
2023/05/15 16:45:22;;;;;;;33.15;19.95;;;19.80;99.90;;;;;;6205056;23;20008;-92
2023/05/15 16:47:49;;;;;;;33.75;19.90;;;19.70;99.90;;;;;;6218853;22;20007;-92
2023/05/15 16:50:16;;;;;;;46.05;19.40;;;19.70;99.90;;;;;;6237505;22;20007;-93
2023/05/15 16:52:46;;;;;;;34.08;19.15;;;19.60;99.90;;;;;;6235505;22;19999;-93
2023/05/15 16:55:15;;;;;;;31.63;19.20;;;19.60;99.90;;;;;;6237066;22;20123;-92
2023/05/15 16:57:45;;;;;;;37.58;19.92;;;19.60;99.90;;;;;;6237706;22;20004;-93
2023/05/15 17:00:13;;;;;;;37.28;20.40;;;19.60;99.90;;;;;;6236838;22;20003;-93
2023/05/15 17:02:43;;;;;;;44.65;20.35;;;19.50;99.90;;;;;;6236562;22;20004;-91
2023/05/15 17:05:11;;;;;;;38.22;20.38;;;19.60;99.90;;;;;;6238696;22;20499;-93
2023/05/15 17:07:38;;;;;;;36.38;19.95;;;19.50;99.90;;;;;;6236146;22;20010;-92
2023/05/15 17:10:10;;;;;;;44.03;20.08;;;19.50;99.90;;;;;;6237935;22;20015;-93
2023/05/15 17:12:38;;;;;;;35.80;20.23;;;19.50;99.90;;;;;;6233077;22;20337;-92
2023/05/15 17:15:05;;;;;;;39.75;20.42;;;19.60;99.90;;;;;;6227501;22;20016;-93
2023/05/15 17:17:31;;;;;;;34.30;20.50;;;19.60;99.90;;;;;;6226387;22;20007;-92
2023/05/15 17:19:58;;;;;;;37.60;20.27;;;19.60;99.90;;;;;;6226440;22;20501;-92
2023/05/15 17:22:27;;;;;;;37.75;20.40;;;19.60;99.90;;;;;;6226812;22;20087;-92
2023/05/15 17:24:55;;;;;;;41.08;21.83;;;19.60;99.90;;;;;;6226518;22;20011;-91
2023/05/15 17:27:21;;;;;;;41.30;20.58;;;19.60;99.90;;;;;;6226312;22;20052;-94
2023/05/15 17:29:48;;;;;;;38.10;21.15;;;19.60;99.90;;;;;;6226370;22;20469;-91
2023/05/15 17:32:18;;;;;;;43.80;22.55;;;19.50;99.90;;;;;;6226340;22;20060;-92
2023/05/15 17:34:44;;;;;;;42.80;21.40;;;19.60;99.90;;;;;;6226536;22;20012;-92
2023/05/15 17:37:11;;;;;;;40.97;20.52;;;19.50;99.90;;;;;;6226469;22;20012;-92
2023/05/15 17:39:38;;;;;;;37.47;20.70;;;19.50;99.90;;;;;;6226337;22;20016;-94
2023/05/15 17:42:04;;;;;;;33.08;21.02;;;19.50;99.90;;;;;;6226778;22;20019;-91
2023/05/15 17:44:31;;;;;;;43.83;20.95;;;19.50;99.90;;;;;;6227300;22;20491;-92
2023/05/15 17:46:58;;;;;;;43.55;21.27;;;19.50;99.90;;;;;;6226674;22;20008;-92
2023/05/15 17:49:25;;;;;;;36.10;20.50;;;19.50;99.90;;;;;;6226655;22;20012;-93
2023/05/15 17:51:52;;;;;;;34.15;21.40;;;19.50;99.90;;;;;;6226906;22;20433;-92
2023/05/15 17:54:18;;;;;;;37.15;19.85;;;19.50;99.90;;;;;;6227780;22;20058;-92
2023/05/15 17:56:45;;;;;;;44.78;21.75;;;19.50;99.90;;;;;;6228432;22;20034;-92
2023/05/15 17:59:11;;;;;;;40.05;21.52;;;19.50;99.90;;;;;;6233637;22;20000;-92
2023/05/15 18:01:37;;;;;;;54.42;20.60;;;19.60;99.90;;;;;;6228729;22;20004;-92
2023/05/15 18:04:10;;;;;;;44.97;21.17;;;19.40;99.90;;;;;;6226450;22;20381;-93
2023/05/15 18:06:42;;;;;;;37.67;20.70;;;19.40;99.90;;;;;;6228794;22;20003;-93
2023/05/15 18:09:09;;;;;;;50.20;22.08;;;19.40;99.90;;;;;;6227466;22;20007;-93
2023/05/15 18:11:36;;;;;;;35.75;20.40;;;19.40;99.90;;;;;;6230104;22;20004;-92
2023/05/15 18:14:03;;;;;;;40.92;21.27;;;19.40;99.90;;;;;;6230301;22;20007;-93
2023/05/15 18:16:36;;;;;;;36.25;20.35;;;19.40;99.90;;;;;;6229699;22;20015;-92
2023/05/15 18:22:29;;;;;;;39.78;21.52;;;19.30;99.90;;;;;;6076265;23;20062;-93
2023/05/15 18:25:08;;;;;;;42.75;20.23;;;19.30;99.90;;;;;;6055759;23;20043;-95
2023/05/15 18:27:35;;;;;;;43.92;19.85;;;19.30;99.90;;;;;;6094861;23;20483;-93
2023/05/15 18:33:15;;;;;;;29.30;20.10;;;19.30;99.90;;;;;;6067406;23;20038;-91
2023/05/15 18:35:42;;;;;;;46.17;20.77;;;19.20;99.90;;;;;;6043879;23;20023;-93
2023/05/15 18:38:09;;;;;;;41.78;20.67;;;19.20;99.90;;;;;;6068000;23;20003;-91
2023/05/15 18:40:35;;;;;;;39.85;19.85;;;19.30;99.90;;;;;;6067501;23;20053;-93
2023/05/15 18:43:02;;;;;;;37.63;20.05;;;19.30;99.90;;;;;;6043641;23;20094;-90
2023/05/15 18:45:28;;;;;;;52.05;20.75;;;19.30;99.90;;;;;;6067666;23;20011;-91
2023/05/15 18:47:54;;;;;;;43.28;21.48;;;19.30;99.90;;;;;;6067517;23;20154;-91
